createdAt,value
2018-12-10T00:02:23.460Z,99555.37
2018-12-10T00:04:53.303Z,99547.64
2018-12-10T00:07:22.409Z,99559.61
2018-12-10T00:09:50.650Z,99569.66
2018-12-10T00:12:19.659Z,99559.48
2018-12-10T00:14:48.406Z,99559.89
2018-12-10T00:17:16.396Z,99566.58
2018-12-10T00:19:46.247Z,99568.92
2018-12-10T00:22:15.185Z,99584.20
2018-12-10T00:24:44.996Z,99580.30
2018-12-10T00:27:14.174Z,99585.02
2018-12-10T00:29:41.755Z,99592.91
2018-12-10T00:32:11.359Z,99589.30
2018-12-10T00:34:39.049Z,99599.32
2018-12-10T00:37:07.232Z,99603.72
2018-12-10T00:39:36.281Z,99609.94
2018-12-10T00:42:04.348Z,99611.20
2018-12-10T00:44:35.502Z,99603.91
2018-12-10T00:47:04.866Z,99609.53
2018-12-10T00:49:33.453Z,99607.30
2018-12-10T00:52:03.971Z,99607.31
2018-12-10T00:54:32.877Z,99616.23
2018-12-10T00:57:01.263Z,99622.92
2018-12-10T00:59:30.744Z,99620.87
2018-12-10T01:01:59.575Z,99626.63
2018-12-10T01:04:27.302Z,99627.93
2018-12-10T01:06:55.017Z,99627.70
2018-12-10T01:09:23.209Z,99632.25
2018-12-10T01:11:50.937Z,99638.70
2018-12-10T01:14:18.885Z,99641.88
2018-12-10T01:16:47.575Z,99636.95
2018-12-10T01:19:15.635Z,99648.78
2018-12-10T01:21:44.156Z,99650.87
2018-12-10T01:24:12.344Z,99651.47
2018-12-10T01:26:41.018Z,99666.38
2018-12-10T01:29:10.194Z,99663.28
2018-12-10T01:31:37.881Z,99671.03
2018-12-10T01:34:07.221Z,99679.63
2018-12-10T01:36:35.048Z,99679.80
2018-12-10T01:39:04.577Z,99683.53
2018-12-10T01:41:32.091Z,99691.16
2018-12-10T01:44:01.279Z,99698.81
2018-12-10T01:46:29.409Z,99697.14
2018-12-10T01:48:57.661Z,99701.59
2018-12-10T01:51:27.169Z,99702.39
2018-12-10T01:53:57.036Z,99699.20
2018-12-10T01:56:24.930Z,99704.02
2018-12-10T01:58:52.684Z,99702.09
2018-12-10T02:01:23.768Z,99710.06
2018-12-10T02:03:52.460Z,99714.88
2018-12-10T02:06:21.659Z,99711.78
2018-12-10T02:08:49.602Z,99709.98
2018-12-10T02:11:19.160Z,99717.56
2018-12-10T02:13:47.134Z,99715.27
2018-12-10T02:16:17.370Z,99724.45
2018-12-10T02:18:46.210Z,99726.08
2018-12-10T02:21:14.488Z,99721.13
2018-12-10T02:23:43.446Z,99728.39
2018-12-10T02:26:10.992Z,99728.05
2018-12-10T02:28:46.588Z,99731.07
2018-12-10T02:31:14.319Z,99731.18
2018-12-10T02:33:41.895Z,99730.22
2018-12-10T02:36:09.447Z,99735.38
2018-12-10T02:38:37.018Z,99736.09
2018-12-10T02:41:04.654Z,99731.43
2018-12-10T02:43:32.199Z,99735.51
2018-12-10T02:45:59.850Z,99731.66
2018-12-10T02:48:27.412Z,99740.45
2018-12-10T02:50:54.915Z,99737.44
2018-12-10T02:53:22.461Z,99747.92
2018-12-10T02:55:50.151Z,99750.44
2018-12-10T02:58:17.709Z,99755.88
2018-12-10T03:00:45.283Z,99760.66
2018-12-10T03:03:12.811Z,99729.52
2018-12-10T03:05:40.353Z,99757.85
2018-12-10T03:08:07.889Z,99758.99
2018-12-10T03:10:35.677Z,99752.02
2018-12-10T03:13:03.208Z,99757.35
2018-12-10T03:15:30.758Z,99755.50
2018-12-10T03:17:58.290Z,99755.92
2018-12-10T03:20:25.852Z,99756.72
2018-12-10T03:22:53.397Z,99765.67
2018-12-10T03:25:20.956Z,99760.44
2018-12-10T03:27:48.522Z,99765.67
2018-12-10T03:30:16.086Z,99774.58
2018-12-10T03:32:43.688Z,99776.30
2018-12-10T03:35:11.248Z,99776.27
2018-12-10T03:37:38.783Z,99774.47
2018-12-10T03:40:06.360Z,99776.98
2018-12-10T03:42:33.894Z,99779.75
2018-12-10T03:45:01.474Z,99777.22
2018-12-10T03:47:28.987Z,99781.30
2018-12-10T03:49:56.667Z,99792.70
2018-12-10T03:52:24.221Z,99793.19
2018-12-10T03:54:51.786Z,99794.64
2018-12-10T03:57:19.426Z,99803.51
2018-12-10T03:59:47.078Z,99800.91
2018-12-10T04:02:14.622Z,99807.41
2018-12-10T04:04:42.176Z,99809.13
2018-12-10T04:07:09.916Z,99816.19
2018-12-10T04:09:37.509Z,99814.40
2018-12-10T04:12:05.078Z,99817.87
2018-12-10T04:14:32.681Z,99818.79
2018-12-10T04:17:00.225Z,99816.99
2018-12-10T04:28:22.526Z,99827.14
2018-12-10T04:30:50.075Z,99832.27
2018-12-10T04:33:17.606Z,99834.17
2018-12-10T04:35:45.233Z,99840.63
2018-12-10T04:38:12.799Z,99835.37
2018-12-10T04:40:40.404Z,99837.86
2018-12-10T04:43:07.933Z,99835.69
2018-12-10T04:45:35.568Z,99838.31
2018-12-10T04:48:03.138Z,99845.02
2018-12-10T04:50:30.742Z,99849.27
2018-12-10T04:52:58.286Z,99850.91
2018-12-10T04:55:25.916Z,99858.38
2018-12-10T04:57:53.523Z,99857.00
2018-12-10T05:00:21.076Z,99853.67
2018-12-10T05:02:48.633Z,99853.67
2018-12-10T05:05:16.203Z,99857.70
2018-12-10T05:07:43.774Z,99864.09
2018-12-10T05:10:11.362Z,99861.78
2018-12-10T05:12:38.907Z,99868.41
2018-12-10T05:15:06.502Z,99865.86
2018-12-10T05:17:34.036Z,99861.74
2018-12-10T05:20:01.579Z,99860.03
2018-12-10T05:22:29.109Z,99866.03
2018-12-10T05:25:00.491Z,99865.73
2018-12-10T05:27:28.068Z,99859.25
2018-12-10T05:29:55.858Z,99865.08
2018-12-10T05:32:23.388Z,99865.40
2018-12-10T05:34:50.988Z,99866.88
2018-12-10T05:37:18.771Z,99863.86
2018-12-10T05:39:46.443Z,99866.36
2018-12-10T05:42:14.418Z,99868.47
2018-12-10T05:44:42.038Z,99869.02
2018-12-10T05:47:09.566Z,99864.23
2018-12-10T05:49:37.129Z,99874.44
2018-12-10T05:52:04.820Z,99880.34
2018-12-10T05:54:32.368Z,99881.85
2018-12-10T05:56:59.922Z,99888.27
2018-12-10T05:59:27.456Z,99890.41
2018-12-10T06:01:55.072Z,99892.17
2018-12-10T06:04:22.591Z,99902.25
2018-12-10T06:06:50.160Z,99910.44
2018-12-10T06:09:17.707Z,99900.38
2018-12-10T06:11:45.487Z,99902.80
2018-12-10T06:14:13.067Z,99916.20
2018-12-10T06:16:40.624Z,99911.45
2018-12-10T06:19:08.176Z,99913.45
2018-12-10T06:21:35.729Z,99917.20
2018-12-10T06:24:03.276Z,99916.98
2018-12-10T06:26:30.852Z,99915.97
2018-12-10T06:28:59.282Z,99923.13
2018-12-10T06:31:26.854Z,99933.94
2018-12-10T06:33:54.407Z,99927.88
2018-12-10T06:36:21.965Z,99929.77
2018-12-10T06:38:49.496Z,99938.47
2018-12-10T06:41:17.052Z,99929.19
2018-12-10T06:43:44.595Z,99932.98
2018-12-10T06:46:12.321Z,99934.84
2018-12-10T06:48:39.873Z,99936.59
2018-12-10T06:51:07.433Z,99931.02
2018-12-10T06:53:34.978Z,99935.42
2018-12-10T06:56:02.531Z,99932.37
2018-12-10T06:58:30.059Z,99929.94
2018-12-10T07:00:57.624Z,99929.94
2018-12-10T07:03:25.161Z,99935.81
2018-12-10T07:05:52.725Z,99933.00
2018-12-10T07:08:20.240Z,99940.30
2018-12-10T07:10:47.824Z,99949.31
2018-12-10T07:13:15.523Z,99948.27
2018-12-10T07:15:43.111Z,99954.83
2018-12-10T07:18:10.632Z,99950.52
2018-12-10T07:20:38.242Z,99952.59
2018-12-10T07:23:05.857Z,99957.30
2018-12-10T07:25:34.656Z,99959.73
2018-12-10T07:28:02.663Z,99957.36
2018-12-10T07:30:30.255Z,99964.23
2018-12-10T07:32:57.843Z,99964.80
2018-12-10T07:35:25.392Z,99969.76
2018-12-10T07:37:52.974Z,99961.48
2018-12-10T07:40:20.562Z,99969.34
2018-12-10T07:42:48.103Z,99970.73
2018-12-10T07:45:15.636Z,99964.98
2018-12-10T07:47:43.204Z,99979.66
2018-12-10T07:50:10.815Z,99979.63
2018-12-10T07:52:38.418Z,99971.88
2018-12-10T07:55:05.954Z,99979.98
2018-12-10T07:57:33.540Z,99982.39
2018-12-10T08:00:01.077Z,99985.37
2018-12-10T08:02:28.632Z,99991.08
2018-12-10T08:04:56.164Z,99985.83
2018-12-10T08:07:23.833Z,99994.72
2018-12-10T08:10:02.632Z,100001.73
2018-12-10T08:12:31.382Z,100002.58
2018-12-10T08:14:59.046Z,100009.10
2018-12-10T08:17:26.640Z,100019.03
2018-12-10T08:19:55.804Z,100023.61
2018-12-10T08:22:23.565Z,100019.78
2018-12-10T08:24:51.652Z,100023.61
2018-12-10T08:27:19.643Z,100024.98
2018-12-10T08:29:47.568Z,100020.42
2018-12-10T08:32:16.085Z,100021.20
2018-12-10T08:34:43.848Z,100015.19
2018-12-10T08:37:11.500Z,100026.33
2018-12-10T08:39:39.555Z,100024.83
2018-12-10T08:42:08.708Z,100029.95
2018-12-10T08:44:36.929Z,100031.78
2018-12-10T08:47:04.584Z,100026.86
2018-12-10T08:49:32.256Z,100023.95
2018-12-10T08:52:00.839Z,100023.13
2018-12-10T08:54:28.703Z,100030.83
2018-12-10T08:56:56.324Z,100033.01
2018-12-10T08:59:25.196Z,100033.78
2018-12-10T09:01:52.813Z,100035.05
2018-12-10T09:04:20.468Z,100034.94
2018-12-10T09:06:48.003Z,100047.34
2018-12-10T09:09:15.753Z,100046.64
2018-12-10T09:11:43.353Z,100065.47
2018-12-10T09:14:10.971Z,100062.34
2018-12-10T09:16:38.599Z,100066.90
2018-12-10T09:19:06.187Z,100075.02
2018-12-10T09:21:33.728Z,100069.78
2018-12-10T09:24:01.310Z,100070.78
2018-12-10T09:26:28.831Z,100067.72
2018-12-10T09:28:56.427Z,100072.92
2018-12-10T09:31:23.985Z,100073.34
2018-12-10T09:33:51.570Z,100078.47
2018-12-10T09:36:19.125Z,100081.61
2018-12-10T09:38:47.003Z,100086.59
2018-12-10T09:41:14.824Z,100088.38
2018-12-10T09:43:42.385Z,100077.74
2018-12-10T09:46:09.970Z,100077.63
2018-12-10T09:48:37.607Z,100088.41
2018-12-10T09:51:05.170Z,100089.18
2018-12-10T09:53:32.739Z,100089.56
2018-12-10T09:56:00.297Z,100094.45
2018-12-10T09:58:28.025Z,100094.95
2018-12-10T10:00:55.639Z,100084.30
2018-12-10T10:03:23.167Z,100081.01
2018-12-10T10:05:50.736Z,100088.58
2018-12-10T10:08:18.311Z,100085.64
2018-12-10T10:10:45.905Z,100091.56
2018-12-10T10:13:13.439Z,100092.44
2018-12-10T10:15:41.043Z,100084.59
2018-12-10T10:18:08.562Z,100082.23
2018-12-10T10:20:36.143Z,100085.18
2018-12-10T10:23:44.099Z,100085.02
2018-12-10T10:26:11.696Z,100091.27
2018-12-10T10:28:39.222Z,100094.14
2018-12-10T10:31:06.767Z,100086.27
2018-12-10T10:33:34.295Z,100094.22
2018-12-10T10:36:01.867Z,100093.41
2018-12-10T10:38:30.034Z,100100.34
2018-12-10T10:40:57.840Z,100105.64
2018-12-10T10:43:25.517Z,100098.92
2018-12-10T10:45:53.090Z,100101.02
2018-12-10T10:48:20.615Z,100091.81
2018-12-10T10:50:48.352Z,100082.73
2018-12-10T10:53:15.898Z,100084.75
2018-12-10T10:55:43.457Z,100076.23
2018-12-10T10:58:10.967Z,100077.79
2018-12-10T11:00:44.080Z,100078.11
2018-12-10T11:06:07.473Z,100074.03
2018-12-10T11:08:35.068Z,100069.41
2018-12-10T11:11:02.728Z,100072.11
2018-12-10T11:13:30.248Z,100072.48
2018-12-10T11:15:58.419Z,100064.02
2018-12-10T11:18:25.982Z,100059.56
2018-12-10T11:20:53.660Z,100077.86
2018-12-10T11:23:21.198Z,100076.78
2018-12-10T11:25:50.056Z,100062.17
2018-12-10T11:28:17.613Z,100055.31
2018-12-10T11:30:45.229Z,100044.08
2018-12-10T11:33:12.776Z,100048.23
2018-12-10T11:35:40.351Z,100052.09
2018-12-10T11:38:07.965Z,100032.48
2018-12-10T11:40:35.577Z,100034.30
2018-12-10T11:43:03.114Z,100036.34
2018-12-10T11:45:30.683Z,100026.19
2018-12-10T11:47:58.234Z,100027.31
2018-12-10T11:50:25.794Z,100026.66
2018-12-10T11:52:53.334Z,100032.88
2018-12-10T11:55:20.992Z,100032.31
2018-12-10T11:57:48.532Z,100042.32
2018-12-10T12:00:16.093Z,100041.81
2018-12-10T12:02:43.649Z,100033.65
2018-12-10T12:05:11.166Z,100046.98
2018-12-10T12:07:38.708Z,100039.25
2018-12-10T12:10:06.723Z,100035.43
2018-12-10T12:12:34.263Z,100023.92
2018-12-10T12:15:01.881Z,100032.63
2018-12-10T12:17:29.431Z,100032.07
2018-12-10T12:19:56.941Z,100044.81
2018-12-10T12:22:24.560Z,100036.84
2018-12-10T12:24:52.361Z,100028.41
2018-12-10T12:27:20.497Z,100035.43
2018-12-10T12:29:48.405Z,100021.27
2018-12-10T12:32:16.301Z,100019.17
2018-12-10T12:34:43.998Z,100012.28
2018-12-10T12:37:11.612Z,100021.52
2018-12-10T12:39:39.133Z,100017.10
2018-12-10T12:42:06.842Z,100013.77
2018-12-10T12:44:34.567Z,100007.50
2018-12-10T12:47:02.128Z,100012.62
2018-12-10T12:49:30.161Z,100013.83
2018-12-10T12:51:58.880Z,100007.45
2018-12-10T12:54:26.504Z,100005.35
2018-12-10T12:56:54.176Z,100002.09
2018-12-10T12:59:22.001Z,100004.46
2018-12-10T13:01:49.735Z,100004.70
2018-12-10T13:04:17.317Z,100001.44
2018-12-10T13:06:44.906Z,100001.48
2018-12-10T13:09:12.761Z,100003.39
2018-12-10T13:11:43.079Z,99998.22
2018-12-10T13:14:11.337Z,99998.72
2018-12-10T13:16:40.068Z,99997.83
2018-12-10T13:19:08.420Z,100000.81
2018-12-10T13:21:36.738Z,99998.10
2018-12-10T13:24:05.645Z,99948.48
2018-12-10T13:26:33.792Z,99993.63
2018-12-10T13:29:01.786Z,99998.80
2018-12-10T13:31:30.654Z,99993.50
2018-12-10T13:33:58.383Z,99984.36
2018-12-10T13:36:29.123Z,99982.59
2018-12-10T13:38:57.807Z,99984.79
2018-12-10T13:41:26.521Z,99987.81
2018-12-10T13:43:54.598Z,99983.31
2018-12-10T13:46:22.859Z,99989.06
2018-12-10T13:48:52.777Z,99990.11
2018-12-10T13:51:21.479Z,99978.53
2018-12-10T13:53:49.325Z,99984.00
2018-12-10T13:56:17.255Z,99982.91
2018-12-10T13:58:44.949Z,99978.69
2018-12-10T14:01:14.591Z,99984.24
2018-12-10T14:03:43.604Z,99985.87
2018-12-10T14:06:19.589Z,99979.55
2018-12-10T14:08:54.346Z,99990.62
2018-12-10T14:11:27.786Z,99984.31
2018-12-10T14:14:02.181Z,99976.53
2018-12-10T14:16:33.255Z,99975.28
2018-12-10T14:19:01.080Z,99982.22
2018-12-10T14:21:29.498Z,99971.94
2018-12-10T14:23:59.846Z,99979.20
2018-12-10T14:26:29.587Z,99987.02
2018-12-10T14:28:57.224Z,99986.18
2018-12-10T14:31:27.466Z,99985.13
2018-12-10T14:33:57.932Z,99978.51
2018-12-10T14:36:26.006Z,99987.98
2018-12-10T14:38:54.165Z,99994.70
2018-12-10T14:41:25.858Z,99998.16
2018-12-10T14:43:57.378Z,99998.99
2018-12-10T14:46:27.117Z,99995.22
2018-12-10T14:48:56.337Z,99992.14
2018-12-10T14:51:26.644Z,99993.03
2018-12-10T14:53:58.081Z,100003.57
2018-12-10T14:56:25.919Z,99998.81
2018-12-10T14:58:53.629Z,100006.13
2018-12-10T15:01:21.824Z,100006.97
2018-12-10T15:03:49.759Z,100015.59
2018-12-10T15:06:19.127Z,100004.00
2018-12-10T15:08:47.131Z,100004.05
2018-12-10T15:11:18.177Z,100007.95
2018-12-10T15:13:45.928Z,100004.14
2018-12-10T15:16:13.523Z,99987.61
2018-12-10T15:18:41.718Z,100007.91
2018-12-10T15:21:10.729Z,100000.89
2018-12-10T15:23:39.644Z,99990.17
2018-12-10T15:26:07.303Z,99997.29
2018-12-10T15:28:38.321Z,100001.24
2018-12-10T15:31:06.423Z,100000.54
2018-12-10T15:33:34.747Z,99998.95
2018-12-10T15:36:03.282Z,100004.16
2018-12-10T15:38:30.933Z,100000.85
2018-12-10T15:40:59.093Z,100005.31
2018-12-10T15:43:26.906Z,99997.95
2018-12-10T15:45:55.113Z,100004.23
2018-12-10T15:48:23.229Z,100008.97
2018-12-10T15:50:51.451Z,100002.58
2018-12-10T15:53:19.463Z,100002.97
2018-12-10T15:55:47.209Z,100001.41
2018-12-10T15:58:14.823Z,100003.47
2018-12-10T16:00:42.394Z,100017.71
2018-12-10T16:03:10.003Z,100026.83
2018-12-10T16:05:41.110Z,100031.45
2018-12-10T16:08:09.154Z,100032.03
2018-12-10T16:10:37.213Z,100037.45
2018-12-10T16:13:05.586Z,100035.22
2018-12-10T16:15:33.743Z,100039.55
2018-12-10T16:18:02.096Z,100028.50
2018-12-10T16:20:30.231Z,100034.55
2018-12-10T16:22:59.148Z,100031.86
2018-12-10T16:25:27.662Z,100027.83
2018-12-10T16:27:55.672Z,100021.16
2018-12-10T16:30:25.234Z,100021.62
2018-12-10T16:32:53.957Z,100027.24
2018-12-10T16:35:21.916Z,100024.89
2018-12-10T16:37:49.679Z,100024.84
2018-12-10T16:40:17.291Z,100027.62
2018-12-10T16:42:44.975Z,100037.11
2018-12-10T16:45:12.943Z,100038.95
2018-12-10T16:47:41.606Z,100040.59
2018-12-10T16:50:09.470Z,100035.52
2018-12-10T16:52:37.093Z,100038.45
2018-12-10T16:55:05.875Z,100036.56
2018-12-10T16:57:33.434Z,100034.27
2018-12-10T17:00:01.330Z,100041.45
2018-12-10T17:02:28.990Z,100050.14
2018-12-10T17:04:56.897Z,100047.79
2018-12-10T17:07:25.475Z,100039.67
2018-12-10T17:09:53.192Z,100049.55
2018-12-10T17:12:20.819Z,100055.17
2018-12-10T17:14:48.537Z,100068.58
2018-12-10T17:17:16.198Z,100066.69
2018-12-10T17:19:43.944Z,100060.76
2018-12-10T17:22:11.544Z,100065.78
2018-12-10T17:24:39.176Z,100051.47
2018-12-10T17:27:06.760Z,100060.92
2018-12-10T17:29:36.586Z,100053.43
2018-12-10T17:32:04.532Z,100057.30
2018-12-10T17:34:33.321Z,100064.13
2018-12-10T17:37:01.075Z,100059.38
2018-12-10T17:39:29.136Z,100056.31
2018-12-10T17:41:56.822Z,100057.55
2018-12-10T17:44:24.549Z,100058.84
2018-12-10T17:46:52.326Z,100063.70
2018-12-10T17:49:20.501Z,100052.64
2018-12-10T17:51:48.249Z,100063.47
2018-12-10T17:54:15.976Z,100048.66
2018-12-10T17:56:43.599Z,100058.45
2018-12-10T17:59:11.211Z,100057.19
2018-12-10T18:01:38.805Z,100058.57
2018-12-10T18:04:06.373Z,100051.61
2018-12-10T18:06:33.951Z,100057.88
2018-12-10T18:09:01.543Z,100062.13
2018-12-10T18:11:29.113Z,100058.45
2018-12-10T18:13:56.780Z,100052.30
2018-12-10T18:16:24.415Z,100062.02
2018-12-10T18:18:52.106Z,100051.95
2018-12-10T18:21:19.945Z,100062.62
2018-12-10T18:23:47.525Z,100071.05
2018-12-10T18:26:15.160Z,100083.22
2018-12-10T18:28:42.837Z,100076.71
2018-12-10T18:31:10.507Z,100090.88
2018-12-10T18:33:38.499Z,100082.38
2018-12-10T18:36:06.368Z,100092.10
2018-12-10T18:38:34.162Z,100075.45
2018-12-10T18:41:01.995Z,100082.76
2018-12-10T18:43:29.747Z,100082.23
2018-12-10T18:45:58.124Z,100090.26
2018-12-10T18:48:25.661Z,100097.19
2018-12-10T18:50:53.260Z,100097.16
2018-12-10T18:53:20.884Z,100101.40
2018-12-10T18:55:48.464Z,100092.56
2018-12-10T18:58:16.001Z,100096.39
2018-12-10T19:00:43.578Z,100088.69
2018-12-10T19:03:11.119Z,100088.73
2018-12-10T19:05:38.719Z,100101.40
2018-12-10T19:08:06.291Z,100100.09
2018-12-10T19:10:34.053Z,100087.73
2018-12-10T19:13:01.807Z,100093.94
2018-12-10T19:15:29.393Z,100090.06
2018-12-10T19:17:56.978Z,100098.41
2018-12-10T19:20:24.554Z,100108.21
2018-12-10T19:22:52.097Z,100103.00
2018-12-10T19:25:20.909Z,100104.38
2018-12-10T19:27:48.511Z,100104.77
2018-12-10T19:30:16.424Z,100113.34
2018-12-10T19:32:43.951Z,100116.36
2018-12-10T19:35:11.523Z,100111.00
2018-12-10T19:37:40.082Z,100106.14
2018-12-10T19:40:07.791Z,100110.47
2018-12-10T19:42:35.436Z,100104.53
2018-12-10T19:45:03.685Z,100109.84
2018-12-10T19:47:31.421Z,100107.31
2018-12-10T19:49:59.075Z,100102.25
2018-12-10T19:52:27.982Z,100095.66
2018-12-10T19:54:55.611Z,100105.57
2018-12-10T19:57:23.731Z,100109.29
2018-12-10T19:59:51.485Z,100103.59
2018-12-10T20:02:19.235Z,100109.04
2018-12-10T20:04:47.236Z,100101.28
2018-12-10T20:07:15.684Z,100112.98
2018-12-10T20:09:56.530Z,100116.39
2018-12-10T20:12:24.209Z,100111.61
2018-12-10T20:14:52.072Z,100118.63
2018-12-10T20:17:20.542Z,100125.16
2018-12-10T20:19:48.142Z,100126.92
2018-12-10T20:22:16.046Z,100134.69
2018-12-10T20:24:43.710Z,100132.02
2018-12-10T20:27:15.350Z,100134.66
2018-12-10T20:29:44.016Z,100131.95
2018-12-10T20:32:12.758Z,100127.17
2018-12-10T20:34:40.412Z,100135.33
2018-12-10T20:37:08.091Z,100129.39
2018-12-10T20:39:35.766Z,100124.42
2018-12-10T20:42:04.251Z,100131.48
2018-12-10T20:44:32.618Z,100118.22
2018-12-10T20:47:00.678Z,100112.21
2018-12-10T20:49:28.255Z,100100.81
2018-12-10T20:51:56.151Z,100107.08
2018-12-10T20:54:23.735Z,100124.88
2018-12-10T20:56:51.317Z,100132.26
2018-12-10T20:59:18.972Z,100136.34
2018-12-10T21:01:46.857Z,100143.75
2018-12-10T21:04:14.388Z,100147.23
2018-12-10T21:06:41.984Z,100154.20
2018-12-10T21:09:09.511Z,100149.47
2018-12-10T21:11:37.174Z,100145.72
2018-12-10T21:14:04.898Z,100153.96
2018-12-10T21:16:32.568Z,100153.42
2018-12-10T21:19:00.166Z,100152.03
2018-12-10T21:21:27.738Z,100147.98
2018-12-10T21:23:55.459Z,100143.48
2018-12-10T21:26:23.112Z,100141.87
2018-12-10T21:28:50.680Z,100152.92
2018-12-10T21:31:18.234Z,100155.04
2018-12-10T21:33:45.877Z,100151.42
2018-12-10T21:36:13.407Z,100154.67
2018-12-10T21:38:45.436Z,100156.11
2018-12-10T21:41:11.047Z,100166.13
2018-12-10T21:43:39.065Z,100165.00
2018-12-10T21:46:06.777Z,100163.16
2018-12-10T21:48:34.404Z,100162.66
2018-12-10T21:51:02.105Z,100161.77
2018-12-10T21:53:30.452Z,100156.41
2018-12-10T21:55:58.056Z,100161.41
2018-12-10T21:58:25.688Z,100166.31
2018-12-10T22:00:53.567Z,100167.23
2018-12-10T22:03:22.092Z,100169.91
2018-12-10T22:05:50.188Z,100176.03
2018-12-10T22:08:18.445Z,100172.64
2018-12-10T22:10:47.136Z,100167.66
2018-12-10T22:13:14.771Z,100174.70
2018-12-10T22:15:42.723Z,100179.98
2018-12-10T22:18:10.967Z,100177.91
2018-12-10T22:20:38.547Z,100173.89
2018-12-10T22:23:06.283Z,100177.61
2018-12-10T22:25:34.395Z,100179.16
2018-12-10T22:28:02.034Z,100178.83
2018-12-10T22:30:30.093Z,100176.23
2018-12-10T22:32:58.018Z,100186.25
2018-12-10T22:35:25.955Z,100178.70
2018-12-10T22:37:53.716Z,100179.24
2018-12-10T22:40:22.135Z,100172.37
2018-12-10T22:42:49.772Z,100172.95
2018-12-10T22:45:17.472Z,100176.05
2018-12-10T22:47:45.051Z,100174.03
2018-12-10T22:50:12.693Z,100178.07
2018-12-10T22:52:40.231Z,100177.81
2018-12-10T22:55:08.439Z,100173.06
2018-12-10T22:57:36.273Z,100170.87
2018-12-10T23:00:07.460Z,100165.31
2018-12-10T23:02:35.255Z,100175.95
2018-12-10T23:05:03.123Z,100171.29
2018-12-10T23:07:32.253Z,100165.83
2018-12-10T23:10:00.269Z,100162.92
2018-12-10T23:12:28.049Z,100166.03
2018-12-10T23:14:55.720Z,100172.20
2018-12-10T23:17:23.528Z,100173.45
2018-12-10T23:19:51.386Z,100169.84
2018-12-10T23:22:19.589Z,100176.80
2018-12-10T23:24:48.178Z,100169.84
2018-12-10T23:27:15.970Z,100183.70
2018-12-10T23:29:43.864Z,100183.13
2018-12-10T23:32:11.664Z,100190.77
2018-12-10T23:34:39.228Z,100193.75
2018-12-10T23:37:10.072Z,100189.68
2018-12-10T23:39:38.536Z,100185.87
2018-12-10T23:42:06.392Z,100182.00
2018-12-10T23:47:35.531Z,100179.20
2018-12-10T23:50:04.524Z,100180.29
2018-12-10T23:52:34.806Z,100185.59
2018-12-10T23:55:02.842Z,100181.73
2018-12-10T23:57:32.727Z,100183.72
